Time;durP1;ratioP1;P1;durP2;ratioP2;P2;SDS_P1;SDS_P2;PMS_P1;PMS_P2;Temp;Humidity;BMP_temperature;BMP_pressure;BME280_temperature;BME280_humidity;BME280_pressure;Samples;Min_cycle;Max_cycle;Signal;HPM_P1;HPM_P2
2021/06/25 00:01:04;;;;;;;30.75;7.93;;;;;;;22.22;76.92;95180.72;5065013;28;20058;-76
2021/06/25 00:03:31;;;;;;;25.13;6.25;;;;;;;22.24;76.43;95178.53;5066300;28;20063;-76
2021/06/25 00:05:58;;;;;;;23.92;6.65;;;;;;;22.28;75.96;95190.16;5064548;28;20124;-76
2021/06/25 00:08:25;;;;;;;26.23;5.90;;;;;;;22.22;75.72;95180.72;5066085;28;20042;-76
2021/06/25 00:10:52;;;;;;;27.77;7.65;;;;;;;22.24;75.74;95181.19;5064958;28;20049;-76
2021/06/25 00:13:18;;;;;;;28.55;6.03;;;;;;;22.26;75.49;95176.41;5065656;28;20051;-76
2021/06/25 00:15:45;;;;;;;28.83;6.35;;;;;;;22.21;75.36;95163.22;5065891;28;20052;-76
2021/06/25 00:18:13;;;;;;;28.17;7.38;;;;;;;22.28;75.57;95171.59;5064634;28;20410;-75
2021/06/25 00:20:40;;;;;;;20.50;6.45;;;;;;;22.20;77.28;95151.03;5065874;28;20580;-76
2021/06/25 00:23:07;;;;;;;26.45;6.45;;;;;;;22.05;77.97;95148.69;5065739;28;20041;-76
2021/06/25 00:25:34;;;;;;;22.48;6.50;;;;;;;21.63;80.02;95137.31;5066009;28;20048;-75
2021/06/25 00:28:01;;;;;;;21.77;6.22;;;;;;;21.29;81.47;95143.69;5065870;28;20045;-76
2021/06/25 00:30:28;;;;;;;24.25;6.18;;;;;;;21.39;80.41;95140.84;5066046;28;20047;-76
2021/06/25 00:32:55;;;;;;;36.17;5.90;;;;;;;21.51;79.14;95140.41;5064418;28;20052;-76
2021/06/25 00:35:22;;;;;;;33.80;6.75;;;;;;;21.58;78.45;95152.19;5064588;28;20040;-76
2021/06/25 00:37:49;;;;;;;28.15;7.85;;;;;;;21.67;78.70;95148.88;5065790;28;20530;-76
2021/06/25 00:40:16;;;;;;;28.67;7.80;;;;;;;21.69;78.52;95149.38;5065860;28;20124;-76
2021/06/25 00:42:43;;;;;;;23.38;6.05;;;;;;;21.69;77.96;95152.78;5066010;28;20040;-76
2021/06/25 00:45:15;;;;;;;23.75;7.15;;;;;;;21.46;79.37;95138.63;5064467;28;20043;-76
2021/06/25 00:47:44;;;;;;;22.02;6.80;;;;;;;21.58;76.87;95151.41;5062344;28;20085;-76
2021/06/25 00:50:12;;;;;;;27.98;6.88;;;;;;;21.52;75.56;95148.06;5065429;28;20095;-76
2021/06/25 00:52:39;;;;;;;23.63;6.05;;;;;;;21.50;74.96;95160.84;5065752;28;20047;-75
2021/06/25 00:55:07;;;;;;;21.48;5.72;;;;;;;21.33;74.97;95171.16;5065821;28;20093;-76
2021/06/25 00:57:33;;;;;;;20.27;6.15;;;;;;;21.03;76.30;95160.00;5064483;28;20044;-76
2021/06/25 01:00:00;;;;;;;21.05;6.13;;;;;;;20.88;76.83;95163.66;5064176;28;20434;-75
2021/06/25 01:02:27;;;;;;;22.73;6.03;;;;;;;20.72;77.78;95157.78;5065556;28;20041;-76
2021/06/25 01:04:54;;;;;;;27.73;7.88;;;;;;;20.67;78.98;95155.25;5065593;28;20146;-76
2021/06/25 01:07:21;;;;;;;19.77;5.80;;;;;;;20.60;79.17;95149.47;5065726;28;20083;-76
2021/06/25 01:09:49;;;;;;;20.52;6.00;;;;;;;20.63;80.31;95170.09;5065389;28;20127;-76
2021/06/25 01:12:16;;;;;;;21.98;6.38;;;;;;;20.44;80.27;95162.91;5065550;28;20044;-76
2021/06/25 01:14:43;;;;;;;18.45;6.53;;;;;;;20.38;81.07;95161.41;5065567;28;20055;-76
2021/06/25 01:17:38;;;;;;;22.33;5.47;;;;;;;20.38;81.91;95156.13;5064296;28;20048;-76
2021/06/25 01:20:11;;;;;;;22.88;5.85;;;;;;;20.25;82.57;95151.50;5063529;28;20156;-76
2021/06/25 01:22:40;;;;;;;21.83;6.10;;;;;;;20.32;82.54;95149.31;5065239;28;20040;-76
2021/06/25 01:25:16;;;;;;;22.95;6.53;;;;;;;20.34;83.03;95152.44;5068215;28;20105;-76
2021/06/25 01:27:47;;;;;;;21.88;6.70;;;;;;;20.23;84.26;95153.66;5069019;28;20044;-76
2021/06/25 01:30:18;;;;;;;29.00;8.02;;;;;;;20.19;84.47;95144.72;5067590;28;20036;-76
2021/06/25 01:32:45;;;;;;;17.48;6.57;;;;;;;20.20;85.42;95146.28;5068894;28;20394;-76
2021/06/25 01:35:13;;;;;;;24.95;7.63;;;;;;;20.23;85.50;95151.03;5069272;28;20047;-76
2021/06/25 01:37:41;;;;;;;29.20;6.57;;;;;;;20.16;86.67;95146.06;5068775;28;20066;-76
2021/06/25 01:40:14;;;;;;;26.80;8.02;;;;;;;20.20;86.83;95135.72;5068601;28;20032;-76
2021/06/25 01:42:42;;;;;;;19.15;6.78;;;;;;;20.24;86.27;95137.50;5069403;28;20600;-76
2021/06/25 01:45:11;;;;;;;28.65;8.48;;;;;;;20.24;86.61;95131.44;5068531;28;20060;-77
2021/06/25 01:47:40;;;;;;;25.95;7.47;;;;;;;20.28;86.21;95137.72;5068373;28;20044;-76
2021/06/25 01:50:10;;;;;;;33.13;8.15;;;;;;;20.26;87.21;95139.88;5067551;28;20052;-77
2021/06/25 01:52:48;;;;;;;17.05;7.05;;;;;;;20.27;86.84;95136.16;5068354;28;20039;-76
2021/06/25 01:55:16;;;;;;;29.52;8.50;;;;;;;20.24;86.55;95136.75;5069081;28;20040;-76
2021/06/25 01:57:43;;;;;;;28.77;8.10;;;;;;;20.22;87.14;95123.00;5067747;28;20037;-76
2021/06/25 02:00:11;;;;;;;27.20;8.82;;;;;;;20.34;87.09;95136.59;5067746;28;20068;-76
2021/06/25 02:02:39;;;;;;;20.67;7.68;;;;;;;20.30;87.24;95130.28;5066182;28;20037;-75
2021/06/25 02:05:08;;;;;;;29.58;7.70;;;;;;;20.30;87.47;95140.09;5068462;28;20422;-75
2021/06/25 02:07:35;;;;;;;33.60;7.80;;;;;;;20.30;87.72;95140.88;5068941;28;20044;-74
2021/06/25 02:10:04;;;;;;;32.00;9.18;;;;;;;20.31;87.30;95139.81;5068467;28;20048;-75
2021/06/25 02:12:31;;;;;;;38.85;9.15;;;;;;;20.32;86.97;95143.25;5068403;28;20062;-76
2021/06/25 02:14:58;;;;;;;31.98;8.32;;;;;;;20.34;87.46;95147.16;5068315;28;20430;-76
2021/06/25 02:17:25;;;;;;;30.58;8.32;;;;;;;20.37;87.23;95151.13;5066655;28;20055;-76
2021/06/25 02:19:52;;;;;;;28.63;7.78;;;;;;;20.24;87.87;95152.59;5068184;28;20048;-76
2021/06/25 02:22:18;;;;;;;32.50;9.02;;;;;;;20.17;87.82;95141.59;5068256;28;20059;-76
2021/06/25 02:24:45;;;;;;;20.75;7.75;;;;;;;20.19;87.79;95139.44;5068062;28;20425;-76
2021/06/25 02:27:12;;;;;;;29.15;8.40;;;;;;;20.25;87.43;95160.22;5068062;28;20048;-75
2021/06/25 02:29:39;;;;;;;21.42;7.93;;;;;;;20.18;87.36;95153.72;5066898;28;20058;-76
2021/06/25 02:32:06;;;;;;;32.15;8.23;;;;;;;20.20;87.07;95162.97;5066873;28;20045;-75
2021/06/25 02:34:33;;;;;;;29.02;7.35;;;;;;;20.20;86.94;95148.94;5066807;28;20144;-75
2021/06/25 02:37:00;;;;;;;31.45;10.50;;;;;;;20.24;86.73;95148.09;5066527;28;20052;-76
2021/06/25 02:39:27;;;;;;;26.38;9.27;;;;;;;19.88;90.32;95150.38;5066894;28;20032;-76
2021/06/25 02:41:53;;;;;;;19.02;7.82;;;;;;;19.89;90.71;95138.72;5067486;28;20143;-74
2021/06/25 02:44:20;;;;;;;28.63;7.80;;;;;;;20.05;89.58;95144.63;5067868;28;20047;-74
2021/06/25 02:46:47;;;;;;;31.60;8.32;;;;;;;19.97;89.97;95138.13;5064579;28;20052;-75
2021/06/25 02:49:16;;;;;;;33.13;9.68;;;;;;;19.99;89.62;95146.56;5067023;28;20492;-75
2021/06/25 02:51:44;;;;;;;27.45;9.30;;;;;;;19.97;89.58;95138.13;5067108;28;20060;-75
2021/06/25 02:54:11;;;;;;;32.80;9.02;;;;;;;20.04;90.20;95151.78;5067181;28;20068;-74
2021/06/25 02:56:38;;;;;;;24.13;9.98;;;;;;;19.77;91.40;95141.78;5066987;28;20041;-73
2021/06/25 02:59:05;;;;;;;27.10;9.85;;;;;;;19.85;91.34;95149.06;5066913;28;20040;-75
2021/06/25 03:01:32;;;;;;;45.35;23.70;;;;;;;19.96;90.69;95151.63;5066320;28;20484;-73
2021/06/25 03:03:59;;;;;;;34.13;13.98;;;;;;;20.08;89.78;95140.63;5066992;28;20059;-74
2021/06/25 03:06:26;;;;;;;27.08;9.35;;;;;;;20.17;89.14;95157.44;5066923;28;20048;-74
2021/06/25 03:08:52;;;;;;;27.55;10.90;;;;;;;19.95;89.52;95150.84;5065498;28;20470;-74
2021/06/25 03:11:19;;;;;;;37.03;9.85;;;;;;;19.58;90.85;95146.97;5067012;28;20402;-73
2021/06/25 03:13:47;;;;;;;37.05;10.27;;;;;;;19.52;91.44;95163.94;5066500;28;20051;-72
2021/06/25 03:16:14;;;;;;;27.60;9.75;;;;;;;19.47;91.08;95150.78;5065994;28;20516;-72
2021/06/25 03:18:40;;;;;;;27.17;9.88;;;;;;;19.40;90.95;95143.16;5066391;28;20040;-73
2021/06/25 03:21:07;;;;;;;22.00;10.25;;;;;;;19.58;90.70;95152.25;5066861;28;20040;-72
2021/06/25 03:23:34;;;;;;;29.30;9.52;;;;;;;19.71;90.12;95156.06;5066127;28;20426;-73
2021/06/25 03:26:01;;;;;;;27.23;10.02;;;;;;;19.84;89.37;95154.63;5065914;28;20048;-73
2021/06/25 03:28:28;;;;;;;39.78;10.07;;;;;;;19.66;91.26;95154.28;5066438;28;20055;-74
2021/06/25 03:30:55;;;;;;;33.15;11.73;;;;;;;19.42;92.85;95142.91;5066307;28;20106;-74
2021/06/25 03:33:22;;;;;;;42.50;11.10;;;;;;;19.63;91.46;95154.84;5064491;28;20585;-74
2021/06/25 03:35:48;;;;;;;24.17;9.38;;;;;;;19.70;91.26;95153.69;5064733;28;20592;-73
2021/06/25 03:38:15;;;;;;;32.58;11.35;;;;;;;19.54;90.84;95151.22;5064831;28;20087;-73
2021/06/25 03:40:42;;;;;;;33.22;9.45;;;;;;;19.43;91.25;95155.03;5064767;28;20040;-73
2021/06/25 03:43:09;;;;;;;27.83;10.13;;;;;;;19.56;91.03;95166.81;5064890;28;20056;-73
2021/06/25 03:45:36;;;;;;;25.27;9.52;;;;;;;19.70;90.56;95159.78;5064750;28;20916;-74
2021/06/25 03:48:04;;;;;;;29.50;9.52;;;;;;;19.78;89.68;95156.56;5064799;28;20036;-73
2021/06/25 03:50:31;;;;;;;33.92;10.60;;;;;;;19.86;88.99;95163.06;5066457;28;20083;-73
2021/06/25 03:52:58;;;;;;;26.40;9.10;;;;;;;19.99;88.73;95170.34;5066886;28;20051;-74
2021/06/25 03:55:25;;;;;;;32.78;10.07;;;;;;;20.14;88.63;95181.81;5066510;28;20048;-73
2021/06/25 03:57:52;;;;;;;34.90;10.82;;;;;;;20.23;87.91;95178.25;5066287;28;20054;-73
2021/06/25 04:00:22;;;;;;;39.20;11.68;;;;;;;20.33;88.03;95177.34;5065264;28;20469;-74
2021/06/25 04:02:49;;;;;;;47.03;10.68;;;;;;;20.43;88.45;95177.19;5066116;28;20040;-74
2021/06/25 04:05:16;;;;;;;31.70;10.13;;;;;;;20.48;89.04;95172.94;5065884;28;20051;-74
2021/06/25 04:07:43;;;;;;;46.20;11.68;;;;;;;20.54;88.50;95167.25;5066269;28;20044;-74
2021/06/25 04:10:13;;;;;;;26.70;9.02;;;;;;;20.70;88.09;95181.09;5066515;28;20043;-74
2021/06/25 04:12:40;;;;;;;39.05;9.40;;;;;;;20.74;89.03;95171.53;5065367;28;20089;-73
2021/06/25 04:15:08;;;;;;;35.92;11.25;;;;;;;20.67;87.67;95171.13;5065970;28;20036;-74
2021/06/25 04:17:35;;;;;;;41.50;12.07;;;;;;;20.77;87.16;95170.16;5065764;28;20033;-73
2021/06/25 04:20:03;;;;;;;53.08;11.50;;;;;;;20.84;87.21;95175.13;5066119;28;20047;-74
2021/06/25 04:22:31;;;;;;;44.70;11.15;;;;;;;20.89;88.21;95177.69;5066135;28;20522;-74
2021/06/25 04:24:58;;;;;;;28.73;9.27;;;;;;;20.92;88.29;95172.59;5064617;28;20516;-73
2021/06/25 04:27:25;;;;;;;28.00;10.15;;;;;;;21.05;88.46;95172.94;5064770;28;20043;-74
2021/06/25 04:29:52;;;;;;;22.65;9.45;;;;;;;21.14;88.62;95174.63;5064052;28;20040;-74
2021/06/25 04:32:20;;;;;;;27.88;9.93;;;;;;;21.29;88.70;95170.19;5064381;28;20568;-73
2021/06/25 04:34:47;;;;;;;27.73;10.30;;;;;;;21.35;88.81;95158.41;5063404;28;20052;-74
2021/06/25 04:37:14;;;;;;;34.20;10.00;;;;;;;21.47;87.98;95166.72;5064944;28;20036;-73
2021/06/25 04:39:41;;;;;;;26.88;9.52;;;;;;;21.52;87.25;95168.50;5065727;28;20047;-74
2021/06/25 04:42:11;;;;;;;30.48;8.70;;;;;;;21.51;86.57;95162.38;5066337;28;20558;-74
2021/06/25 04:44:38;;;;;;;22.10;8.70;;;;;;;21.65;85.15;95166.94;5065055;28;20063;-74
2021/06/25 04:47:05;;;;;;;30.27;7.97;;;;;;;21.69;84.70;95167.91;5065682;28;20040;-74
2021/06/25 04:49:39;;;;;;;30.80;8.43;;;;;;;21.83;83.57;95163.41;5065704;28;20045;-74
2021/06/25 04:52:07;;;;;;;32.88;8.82;;;;;;;21.73;82.41;95160.94;5066638;28;20158;-74
2021/06/25 04:54:34;;;;;;;25.33;8.77;;;;;;;21.78;80.90;95160.84;5064967;28;20045;-74
2021/06/25 04:57:02;;;;;;;25.83;7.65;;;;;;;21.94;80.44;95159.47;5064776;28;20041;-73
2021/06/25 04:59:29;;;;;;;32.78;9.05;;;;;;;22.01;82.41;95158.31;5065417;28;20490;-73
2021/06/25 05:01:56;;;;;;;24.83;8.77;;;;;;;22.02;81.41;95165.19;5065632;28;20048;-74
2021/06/25 05:04:23;;;;;;;29.33;9.43;;;;;;;22.12;80.17;95162.34;5065632;28;20040;-73
2021/06/25 05:06:50;;;;;;;34.72;9.15;;;;;;;22.16;79.92;95150.03;5065940;28;20051;-74
2021/06/25 05:09:16;;;;;;;27.50;8.73;;;;;;;22.29;79.64;95159.91;5064326;28;20040;-73
2021/06/25 05:11:43;;;;;;;22.85;7.88;;;;;;;22.41;79.71;95166.56;5065830;28;20422;-74
2021/06/25 05:14:10;;;;;;;32.97;8.80;;;;;;;22.53;80.57;95164.19;5065591;28;20040;-74
2021/06/25 05:16:37;;;;;;;38.30;9.50;;;;;;;22.57;82.18;95149.22;5064601;28;20402;-74
2021/06/25 05:19:04;;;;;;;29.35;8.60;;;;;;;22.69;78.11;95159.31;5065871;28;20040;-74
2021/06/25 05:21:31;;;;;;;29.15;9.18;;;;;;;22.75;77.83;95157.34;5065862;28;20050;-74
2021/06/25 05:23:58;;;;;;;27.38;8.70;;;;;;;22.95;76.77;95153.44;5065169;28;20045;-74
2021/06/25 05:26:25;;;;;;;32.53;9.75;;;;;;;22.97;77.17;95152.03;5065113;28;20040;-74
2021/06/25 05:28:52;;;;;;;32.72;9.70;;;;;;;23.05;76.48;95146.03;5065581;28;20127;-74
2021/06/25 05:31:19;;;;;;;28.20;8.75;;;;;;;23.19;75.50;95155.81;5065287;28;20437;-73
2021/06/25 05:33:46;;;;;;;38.38;9.15;;;;;;;23.32;75.04;95159.47;5065658;28;20131;-74
2021/06/25 05:36:13;;;;;;;30.58;10.23;;;;;;;23.38;74.87;95161.72;5062865;28;20072;-74
2021/06/25 05:38:40;;;;;;;32.33;9.52;;;;;;;23.37;73.72;95154.84;5065589;28;20040;-74
2021/06/25 05:41:07;;;;;;;27.58;9.05;;;;;;;23.44;74.62;95160.50;5065521;28;20032;-74
2021/06/25 05:43:34;;;;;;;41.28;10.80;;;;;;;23.55;74.21;95154.91;5065361;28;20043;-73
2021/06/25 05:46:01;;;;;;;35.42;10.40;;;;;;;23.59;74.41;95155.88;5064864;28;20063;-74
2021/06/25 05:48:28;;;;;;;36.10;10.93;;;;;;;23.65;73.63;95163.41;5062414;28;20036;-74
2021/06/25 05:50:55;;;;;;;40.38;11.73;;;;;;;23.69;74.20;95154.84;5065336;28;20040;-74
2021/06/25 05:53:22;;;;;;;39.58;11.70;;;;;;;23.80;74.64;95164.13;5065403;28;20071;-74
2021/06/25 05:55:49;;;;;;;37.53;12.35;;;;;;;23.88;74.24;95162.59;5065202;28;20066;-74
2021/06/25 05:58:16;;;;;;;32.92;9.60;;;;;;;23.79;75.79;95150.03;5065456;28;20486;-74
2021/06/25 06:00:43;;;;;;;32.65;9.52;;;;;;;23.99;75.04;95155.91;5065213;28;20051;-74
2021/06/25 06:03:10;;;;;;;28.50;10.10;;;;;;;24.13;74.80;95161.91;5065564;28;20044;-74
2021/06/25 06:05:37;;;;;;;37.35;10.98;;;;;;;24.28;74.53;95170.56;5065800;28;20041;-75
2021/06/25 06:08:04;;;;;;;40.78;11.68;;;;;;;24.37;74.17;95158.03;5065248;28;20072;-74
2021/06/25 06:10:32;;;;;;;29.88;10.35;;;;;;;24.53;73.95;95167.19;5066363;28;20040;-74
2021/06/25 06:12:59;;;;;;;30.67;9.50;;;;;;;24.68;73.57;95173.94;5067655;28;20492;-74
2021/06/25 06:15:26;;;;;;;33.75;9.77;;;;;;;24.81;73.50;95177.53;5068573;28;20052;-74
2021/06/25 06:17:53;;;;;;;38.80;9.88;;;;;;;24.91;71.83;95171.91;5068588;28;20470;-74
2021/06/25 06:20:25;;;;;;;31.20;9.05;;;;;;;24.97;70.09;95178.66;5068740;28;20041;-74
2021/06/25 06:33:54;;;;;;;36.30;9.60;;;;;;;25.50;65.80;95170.63;5067384;28;20052;-74
2021/06/25 06:38:59;;;;;;;33.30;10.20;;;;;;;25.69;64.31;95168.34;5067170;28;20051;-74
2021/06/25 06:41:27;;;;;;;40.95;10.05;;;;;;;25.83;63.96;95162.03;5068501;28;20041;-74
2021/06/25 06:43:55;;;;;;;44.55;10.25;;;;;;;25.93;64.62;95161.72;5068080;28;20111;-74
2021/06/25 06:46:22;;;;;;;34.45;11.55;;;;;;;26.10;64.84;95166.94;5067547;28;20505;-74
2021/06/25 06:48:49;;;;;;;35.90;10.30;;;;;;;26.26;64.92;95169.09;5067139;28;20101;-73
2021/06/25 06:51:19;;;;;;;31.77;9.43;;;;;;;26.32;63.32;95157.88;5068026;28;20482;-74
2021/06/25 06:53:46;;;;;;;43.58;11.85;;;;;;;26.31;62.24;95150.22;5067137;28;20075;-74
2021/06/25 06:56:16;;;;;;;29.42;9.68;;;;;;;26.47;63.06;95169.09;5067919;28;20051;-74
2021/06/25 06:58:45;;;;;;;32.00;8.90;;;;;;;26.51;61.03;95160.13;5068001;28;20043;-74
2021/06/25 07:01:12;;;;;;;44.85;9.38;;;;;;;26.65;61.49;95164.44;5067760;28;20112;-74
2021/06/25 07:03:59;;;;;;;33.63;10.07;;;;;;;26.77;62.25;95156.50;5065953;28;21020;-74
2021/06/25 07:06:26;;;;;;;31.10;9.27;;;;;;;26.88;61.50;95151.53;5067726;28;20048;-73
2021/06/25 07:08:53;;;;;;;28.35;8.55;;;;;;;27.00;59.35;95148.16;5067824;28;20036;-75
2021/06/25 07:11:20;;;;;;;27.20;8.85;;;;;;;27.11;59.22;95149.31;5067535;28;20051;-75
2021/06/25 07:13:47;;;;;;;33.60;8.40;;;;;;;27.15;59.41;95136.84;5067914;28;20047;-73
2021/06/25 07:16:14;;;;;;;38.55;7.95;;;;;;;27.19;59.14;95135.09;5067748;28;20045;-75
2021/06/25 07:18:42;;;;;;;34.05;8.40;;;;;;;27.44;57.71;95146.66;5067396;28;20058;-75
2021/06/25 07:21:09;;;;;;;29.55;9.35;;;;;;;27.51;57.69;95142.66;5067200;28;20809;-75
2021/06/25 07:23:36;;;;;;;48.83;10.25;;;;;;;27.62;57.04;95144.59;5067855;28;20119;-75
2021/06/25 07:26:03;;;;;;;44.55;10.73;;;;;;;27.73;56.70;95136.09;5064835;28;20048;-75
2021/06/25 07:28:30;;;;;;;30.98;10.25;;;;;;;27.97;57.22;95146.09;5067471;28;20040;-74
2021/06/25 07:30:57;;;;;;;36.65;8.82;;;;;;;28.18;56.49;95145.94;5065868;28;20426;-75
2021/06/25 07:33:25;;;;;;;43.85;11.32;;;;;;;28.39;56.14;95146.59;5065709;28;20089;-74
2021/06/25 07:35:55;;;;;;;36.40;9.27;;;;;;;28.45;56.60;95146.38;5067233;28;20041;-75
2021/06/25 07:38:22;;;;;;;33.47;9.63;;;;;;;28.64;55.91;95151.94;5066950;28;20058;-75
2021/06/25 07:40:49;;;;;;;32.88;9.32;;;;;;;28.76;56.34;95149.25;5067434;28;20037;-75
2021/06/25 07:43:18;;;;;;;34.08;9.32;;;;;;;28.98;56.45;95150.63;5067065;28;20079;-75
2021/06/25 07:45:46;;;;;;;34.75;9.07;;;;;;;29.13;56.27;95141.06;5067107;28;20040;-74
2021/06/25 07:48:14;;;;;;;30.55;8.57;;;;;;;29.08;55.49;95149.38;5065494;28;20047;-75
2021/06/25 07:50:41;;;;;;;34.35;9.43;;;;;;;29.17;55.39;95147.34;5066660;28;20052;-75
2021/06/25 07:53:10;;;;;;;22.63;8.27;;;;;;;29.19;57.34;95138.16;5067044;28;20059;-75
2021/06/25 07:55:42;;;;;;;49.25;10.23;;;;;;;29.31;55.50;95140.78;5066996;28;20044;-75
2021/06/25 07:58:12;;;;;;;31.55;10.50;;;;;;;29.43;54.98;95142.63;5065661;28;20067;-75
2021/06/25 08:00:40;;;;;;;39.35;9.73;;;;;;;29.68;55.81;95140.56;5067035;28;20115;-76
2021/06/25 08:03:07;;;;;;;39.13;9.98;;;;;;;29.70;53.68;95141.00;5066227;28;20036;-76
2021/06/25 08:05:35;;;;;;;44.90;8.57;;;;;;;29.78;51.39;95137.38;5065267;28;20043;-75
2021/06/25 08:08:02;;;;;;;44.35;10.95;;;;;;;29.95;51.48;95135.50;5066943;28;20482;-75
2021/06/25 08:10:29;;;;;;;41.00;9.07;;;;;;;30.16;50.56;95136.00;5066629;28;20051;-75
2021/06/25 08:12:57;;;;;;;37.65;9.57;;;;;;;30.48;49.71;95138.63;5066671;28;20052;-75
2021/06/25 08:15:24;;;;;;;34.75;7.85;;;;;;;30.74;48.87;95137.22;5066570;28;20063;-75
2021/06/25 08:17:50;;;;;;;32.88;7.75;;;;;;;30.96;48.03;95141.94;5065878;28;20045;-75
2021/06/25 08:20:17;;;;;;;45.22;9.13;;;;;;;31.11;47.83;95144.91;5066170;28;20387;-75
2021/06/25 08:22:44;;;;;;;45.47;8.80;;;;;;;31.13;47.99;95142.63;5066784;28;20047;-75
2021/06/25 08:25:11;;;;;;;46.88;10.30;;;;;;;31.23;48.07;95134.00;5066728;28;20094;-75
2021/06/25 08:27:38;;;;;;;42.42;9.00;;;;;;;31.44;47.75;95139.00;5066907;28;20040;-75
2021/06/25 08:30:06;;;;;;;35.55;9.43;;;;;;;31.53;46.09;95138.78;5066249;28;20044;-75
2021/06/25 08:32:34;;;;;;;38.25;8.18;;;;;;;31.74;46.02;95149.91;5065338;28;20036;-75
2021/06/25 08:35:02;;;;;;;35.17;8.23;;;;;;;31.78;44.70;95139.97;5065947;28;20052;-75
2021/06/25 08:37:29;;;;;;;36.47;8.85;;;;;;;31.79;44.86;95136.13;5066032;28;20044;-75
2021/06/25 08:39:56;;;;;;;38.63;7.43;;;;;;;32.05;44.79;95131.19;5064799;28;20044;-75
2021/06/25 08:42:23;;;;;;;40.33;9.82;;;;;;;32.25;41.17;95139.94;5066195;28;20036;-75
2021/06/25 08:44:50;;;;;;;35.78;7.30;;;;;;;32.44;41.00;95136.34;5066000;28;20036;-75
2021/06/25 08:47:17;;;;;;;32.17;9.15;;;;;;;32.39;40.59;95135.53;5065885;28;20051;-75
2021/06/25 08:49:48;;;;;;;31.55;7.38;;;;;;;32.52;41.52;95138.00;5065449;28;20528;-75
2021/06/25 08:52:14;;;;;;;26.85;6.80;;;;;;;32.56;37.62;95118.03;5065224;28;20040;-75
2021/06/25 08:54:42;;;;;;;40.10;8.75;;;;;;;32.91;39.40;95133.13;5066119;28;20517;-75
2021/06/25 08:57:09;;;;;;;37.40;7.72;;;;;;;33.15;38.70;95125.72;5065894;28;20032;-73
2021/06/25 08:59:36;;;;;;;37.63;8.38;;;;;;;33.31;36.09;95144.38;5066101;28;20055;-75
2021/06/25 09:02:04;;;;;;;48.67;8.23;;;;;;;33.48;36.63;95126.81;5066098;28;20041;-75
2021/06/25 09:04:40;;;;;;;37.17;6.75;;;;;;;33.62;37.04;95126.97;5065774;28;20425;-75
2021/06/25 09:07:08;;;;;;;26.27;6.85;;;;;;;33.70;35.83;95123.19;5066003;28;20044;-75
2021/06/25 09:09:48;;;;;;;32.35;6.18;;;;;;;33.79;34.27;95114.00;5065902;28;20067;-75
2021/06/25 09:12:24;;;;;;;33.92;6.80;;;;;;;33.97;33.11;95109.50;5064873;28;20540;-75
2021/06/25 09:14:58;;;;;;;29.85;6.63;;;;;;;34.15;32.16;95131.25;5065972;28;20041;-75
2021/06/25 09:17:26;;;;;;;38.60;7.32;;;;;;;34.12;34.07;95125.81;5064361;28;20417;-75
2021/06/25 09:19:54;;;;;;;31.33;6.50;;;;;;;34.29;31.69;95119.78;5065505;28;20037;-75
2021/06/25 09:22:21;;;;;;;37.58;7.55;;;;;;;34.44;31.93;95118.69;5065024;28;20036;-75
2021/06/25 09:25:01;;;;;;;32.38;7.25;;;;;;;34.42;31.17;95112.13;5065804;28;20036;-74
2021/06/25 09:27:31;;;;;;;27.60;6.18;;;;;;;34.62;33.33;95109.91;5064810;28;20044;-73
2021/06/25 09:29:58;;;;;;;29.95;7.43;;;;;;;34.83;31.46;95115.44;5065559;28;20051;-73
2021/06/25 09:32:36;;;;;;;37.65;8.30;;;;;;;35.03;33.28;95112.41;5065370;28;20406;-71
2021/06/25 09:35:18;;;;;;;32.70;7.03;;;;;;;35.23;32.44;95108.22;5064410;28;20061;-73
2021/06/25 09:37:48;;;;;;;34.00;5.82;;;;;;;35.36;32.51;95113.28;5064024;28;20048;-73
2021/06/25 09:40:16;;;;;;;38.20;6.88;;;;;;;35.25;32.42;95107.09;5065617;28;20047;-74
2021/06/25 09:42:46;;;;;;;30.15;5.97;;;;;;;35.25;31.85;95112.50;5065416;28;20170;-73
2021/06/25 09:45:19;;;;;;;31.02;6.53;;;;;;;35.14;33.05;95102.38;5066907;28;20045;-73
2021/06/25 09:47:53;;;;;;;30.20;7.65;;;;;;;35.31;32.37;95105.53;5069196;28;20050;-73
2021/06/25 09:50:27;;;;;;;26.30;6.95;;;;;;;35.41;32.26;95110.19;5065764;28;20052;-73
2021/06/25 09:52:59;;;;;;;36.13;6.93;;;;;;;35.63;29.68;95104.81;5068736;28;20048;-73
2021/06/25 09:55:56;;;;;;;26.63;6.22;;;;;;;35.85;30.63;95100.94;5069368;28;20139;-73
2021/06/25 10:03:57;;;;;;;33.60;7.03;;;;;;;35.94;30.97;95098.63;5068977;28;20472;-73
2021/06/25 10:06:31;;;;;;;29.15;6.55;;;;;;;36.12;30.44;95087.78;5069043;28;20064;-73
2021/06/25 10:08:59;;;;;;;29.50;6.80;;;;;;;36.49;29.45;95083.06;5069441;28;20041;-72
2021/06/25 10:11:28;;;;;;;28.33;7.13;;;;;;;36.69;28.08;95092.28;5068916;28;20076;-73
2021/06/25 10:13:57;;;;;;;27.33;7.68;;;;;;;36.95;28.47;95089.47;5068111;28;20059;-72
2021/06/25 10:16:25;;;;;;;29.40;5.82;;;;;;;36.89;28.30;95097.25;5068232;28;20041;-73
2021/06/25 10:18:54;;;;;;;26.73;7.18;;;;;;;36.87;28.63;95089.50;5067400;28;20059;-73
2021/06/25 10:21:27;;;;;;;30.25;7.25;;;;;;;37.05;28.83;95083.97;5068722;28;20040;-72
2021/06/25 10:24:00;;;;;;;36.83;7.22;;;;;;;37.29;29.28;95084.25;5068161;28;20051;-73
2021/06/25 10:26:28;;;;;;;25.67;7.25;;;;;;;37.50;28.62;95086.81;5068483;28;20049;-72
2021/06/25 10:28:56;;;;;;;21.00;5.93;;;;;;;37.72;27.89;95081.25;5069003;28;20049;-73
2021/06/25 10:31:25;;;;;;;35.63;6.53;;;;;;;38.02;28.92;95075.16;5068990;28;20039;-73
2021/06/25 10:33:54;;;;;;;31.10;6.95;;;;;;;38.20;28.32;95069.56;5068888;28;20052;-73
2021/06/25 10:36:32;;;;;;;34.95;7.03;;;;;;;38.11;26.61;95072.00;5068579;28;20048;-73
2021/06/25 10:39:10;;;;;;;36.35;6.93;;;;;;;38.06;26.63;95069.69;5067634;28;20040;-73
2021/06/25 10:42:10;;;;;;;31.63;6.80;;;;;;;37.86;25.66;95064.81;5067816;28;20041;-73
2021/06/25 10:44:45;;;;;;;26.55;5.22;;;;;;;37.90;24.59;95061.31;5067094;28;20048;-73
2021/06/25 10:47:15;;;;;;;27.17;6.07;;;;;;;38.19;25.64;95054.41;5067622;28;20044;-72
2021/06/25 10:50:03;;;;;;;27.30;5.60;;;;;;;38.42;25.44;95063.91;5066398;28;20055;-72
2021/06/25 10:52:32;;;;;;;34.53;7.43;;;;;;;38.66;25.03;95055.88;5066943;28;20462;-72
2021/06/25 10:55:05;;;;;;;39.50;6.15;;;;;;;38.86;25.79;95058.72;5065694;28;20044;-73
2021/06/25 10:57:34;;;;;;;31.30;6.60;;;;;;;39.21;24.71;95062.16;5066085;28;20063;-73
2021/06/25 11:00:04;;;;;;;35.65;7.07;;;;;;;39.25;23.99;95062.88;5067598;28;20049;-72
2021/06/25 11:02:42;;;;;;;41.67;6.47;;;;;;;39.31;22.60;95055.75;5067945;28;20041;-72
2021/06/25 11:05:21;;;;;;;39.20;6.60;;;;;;;39.38;20.66;95051.00;5067198;28;20057;-72
2021/06/25 11:07:49;;;;;;;37.25;6.10;;;;;;;39.00;19.62;95056.59;5065529;28;20041;-72
2021/06/25 11:10:24;;;;;;;46.10;6.75;;;;;;;39.21;19.15;95052.03;5067704;28;20037;-72
2021/06/25 11:13:13;;;;;;;33.28;6.30;;;;;;;39.39;21.73;95046.31;5066951;28;20098;-72
2021/06/25 11:15:43;;;;;;;34.13;7.07;;;;;;;39.34;21.72;95039.38;5067537;28;20093;-72
2021/06/25 11:18:17;;;;;;;32.45;6.22;;;;;;;39.51;20.82;95044.97;5066405;28;20387;-71
2021/06/25 11:21:05;;;;;;;34.38;6.03;;;;;;;39.63;21.03;95043.63;5066534;28;20055;-72
2021/06/25 11:23:35;;;;;;;30.20;6.38;;;;;;;39.63;21.89;95030.75;5067451;28;20040;-72
2021/06/25 11:26:04;;;;;;;34.65;7.32;;;;;;;39.68;20.10;95035.75;5067524;28;20064;-72
2021/06/25 11:28:32;;;;;;;38.65;6.38;;;;;;;40.10;20.02;95030.75;5067429;28;20036;-71
2021/06/25 11:31:02;;;;;;;37.22;5.85;;;;;;;40.44;20.51;95035.16;5067005;28;20041;-72
2021/06/25 11:33:48;;;;;;;34.75;5.68;;;;;;;40.42;19.16;95037.56;5066834;28;20414;-72
2021/06/25 11:36:24;;;;;;;47.25;6.13;;;;;;;40.57;19.74;95031.81;5067177;28;20421;-72
2021/06/25 11:38:57;;;;;;;28.92;5.57;;;;;;;40.24;20.56;95037.13;5065632;28;20044;-72
2021/06/25 11:41:29;;;;;;;38.92;6.78;;;;;;;40.16;21.34;95032.97;5066503;28;20116;-72
2021/06/25 11:44:38;;;;;;;30.80;5.57;;;;;;;40.25;19.76;95027.75;5065956;28;20052;-72
2021/06/25 11:47:09;;;;;;;37.17;6.20;;;;;;;40.25;20.65;95033.22;5066876;28;20045;-72
2021/06/25 11:49:44;;;;;;;29.50;5.78;;;;;;;40.08;19.58;95030.38;5064355;28;20502;-72
2021/06/25 11:52:19;;;;;;;41.40;7.45;;;;;;;40.07;19.98;95023.41;5066723;28;21458;-72